Time;durP1;ratioP1;P1;durP2;ratioP2;P2;SDS_P1;SDS_P2;PMS_P1;PMS_P2;Temp;Humidity;BMP_temperature;BMP_pressure;BME280_temperature;BME280_humidity;BME280_pressure;Samples;Min_cycle;Max_cycle;Signal;HPM_P1;HPM_P2
2021/09/08 00:00:06;;;;;;;7.57;4.35;;;23.00;48.50;;;;;;5037008;28;20026;-76
2021/09/08 00:02:32;;;;;;;7.75;4.95;;;23.10;48.60;;;;;;5025694;28;20087;-75
2021/09/08 00:04:57;;;;;;;11.18;5.35;;;23.00;48.40;;;;;;5017487;28;20018;-75
2021/09/08 00:07:23;;;;;;;8.30;4.55;;;23.00;48.90;;;;;;5038451;28;20033;-76
2021/09/08 00:09:49;;;;;;;9.10;5.28;;;23.00;48.60;;;;;;5038026;28;20022;-76
2021/09/08 00:12:15;;;;;;;7.78;4.65;;;23.00;48.60;;;;;;5024790;28;20030;-76
2021/09/08 00:14:41;;;;;;;8.98;4.97;;;23.00;48.50;;;;;;5038191;28;20042;-76
2021/09/08 00:17:06;;;;;;;7.28;4.40;;;23.00;48.60;;;;;;5037942;28;21205;-76
2021/09/08 00:19:32;;;;;;;7.20;4.22;;;23.00;48.60;;;;;;5033274;28;20041;-76
2021/09/08 00:21:58;;;;;;;7.50;4.32;;;23.00;49.00;;;;;;5037835;28;20021;-76
2021/09/08 00:24:24;;;;;;;9.18;4.93;;;22.90;48.80;;;;;;5037880;28;20438;-76
2021/09/08 00:26:49;;;;;;;6.40;4.43;;;22.90;48.50;;;;;;5037758;28;20057;-76
2021/09/08 00:29:15;;;;;;;9.50;4.93;;;22.90;48.60;;;;;;5036821;28;20032;-75
2021/09/08 00:31:41;;;;;;;8.57;4.57;;;22.90;49.10;;;;;;5037772;28;20052;-76
2021/09/08 00:34:07;;;;;;;7.13;5.05;;;22.80;49.50;;;;;;5037279;28;20057;-76
2021/09/08 00:36:33;;;;;;;8.57;5.22;;;22.90;49.20;;;;;;5037548;28;20100;-76
2021/09/08 00:38:59;;;;;;;9.13;5.07;;;22.80;49.80;;;;;;5037566;28;20022;-76
2021/09/08 00:41:28;;;;;;;8.95;5.15;;;22.80;49.00;;;;;;5037575;28;20030;-76
2021/09/08 00:43:54;;;;;;;7.75;4.80;;;22.80;48.90;;;;;;5037505;28;20064;-76
2021/09/08 00:46:20;;;;;;;7.55;5.15;;;22.70;49.00;;;;;;5037869;28;20034;-75
2021/09/08 00:48:46;;;;;;;10.05;5.75;;;22.70;49.00;;;;;;5037611;28;20053;-76
2021/09/08 00:51:11;;;;;;;8.45;5.00;;;22.70;49.20;;;;;;5024723;28;20026;-76
2021/09/08 00:53:40;;;;;;;9.38;5.75;;;22.70;50.30;;;;;;5037344;28;20025;-76
2021/09/08 00:56:08;;;;;;;8.45;4.97;;;22.70;49.50;;;;;;5036573;28;20033;-75
2021/09/08 00:58:34;;;;;;;8.80;5.10;;;22.70;50.20;;;;;;5037441;28;20020;-75
2021/09/08 01:01:00;;;;;;;8.00;5.32;;;22.70;49.90;;;;;;5037551;28;20472;-75
2021/09/08 01:03:25;;;;;;;8.18;4.75;;;22.60;49.30;;;;;;5037174;28;20025;-75
2021/09/08 01:05:51;;;;;;;7.70;5.50;;;22.60;49.30;;;;;;5037475;28;20033;-76
2021/09/08 01:08:17;;;;;;;10.05;5.70;;;22.60;49.90;;;;;;5037395;28;20091;-75
2021/09/08 01:10:44;;;;;;;8.65;5.47;;;22.60;49.50;;;;;;5031584;28;20032;-75
2021/09/08 01:13:10;;;;;;;9.20;4.93;;;22.60;49.30;;;;;;5029183;28;20029;-75
2021/09/08 01:15:36;;;;;;;6.55;4.63;;;22.50;49.20;;;;;;5037253;28;20033;-75
2021/09/08 01:18:02;;;;;;;7.20;5.10;;;22.50;49.20;;;;;;5032828;28;20144;-75
2021/09/08 01:20:28;;;;;;;8.02;4.65;;;22.50;49.20;;;;;;5036973;28;20025;-75
2021/09/08 01:22:54;;;;;;;7.30;4.75;;;22.50;49.60;;;;;;5035928;28;20029;-75
2021/09/08 01:25:22;;;;;;;7.65;4.68;;;22.40;49.40;;;;;;5024323;28;20029;-75
2021/09/08 01:27:49;;;;;;;6.45;4.55;;;22.40;49.40;;;;;;5037064;28;20033;-76
2021/09/08 01:30:16;;;;;;;7.40;4.90;;;22.40;49.50;;;;;;5037295;28;20082;-76
2021/09/08 01:32:42;;;;;;;9.60;5.05;;;22.40;49.30;;;;;;5036679;28;20049;-76
2021/09/08 01:35:09;;;;;;;6.88;5.05;;;22.30;49.50;;;;;;5037046;28;20081;-75
2021/09/08 01:37:35;;;;;;;8.50;4.93;;;22.30;49.60;;;;;;5037001;28;20074;-76
2021/09/08 01:40:00;;;;;;;7.10;4.88;;;22.30;49.50;;;;;;5037076;28;20026;-76
2021/09/08 01:42:26;;;;;;;7.82;5.20;;;22.30;49.60;;;;;;5036858;28;20017;-76
2021/09/08 01:44:52;;;;;;;8.43;5.85;;;22.30;49.60;;;;;;5037400;28;20026;-76
2021/09/08 01:47:18;;;;;;;9.63;5.30;;;22.20;49.70;;;;;;5036946;28;20093;-76
2021/09/08 01:49:44;;;;;;;9.63;5.55;;;22.20;50.20;;;;;;5036855;28;20072;-76
2021/09/08 01:52:10;;;;;;;9.40;5.05;;;22.20;50.50;;;;;;5036910;28;20143;-76
2021/09/08 01:54:35;;;;;;;8.75;5.20;;;22.20;50.30;;;;;;5036948;28;20022;-76
2021/09/08 01:57:01;;;;;;;8.60;5.55;;;22.20;50.50;;;;;;5036660;28;20500;-76
2021/09/08 01:59:27;;;;;;;8.95;5.32;;;22.20;50.20;;;;;;5037169;28;20097;-76
2021/09/08 02:01:54;;;;;;;11.30;6.22;;;22.20;50.30;;;;;;5036729;28;20479;-76
2021/09/08 02:04:19;;;;;;;9.38;6.00;;;22.20;50.70;;;;;;5036975;28;20029;-76
2021/09/08 02:06:50;;;;;;;9.05;5.85;;;22.10;50.60;;;;;;5036787;28;20032;-76
2021/09/08 02:09:16;;;;;;;8.80;5.50;;;22.10;50.40;;;;;;5040373;28;20033;-75
2021/09/08 02:11:43;;;;;;;8.63;5.70;;;22.10;50.40;;;;;;5026951;28;20109;-75
2021/09/08 02:14:09;;;;;;;10.57;5.57;;;22.10;50.90;;;;;;5040553;28;20504;-75
2021/09/08 02:16:35;;;;;;;7.47;5.18;;;22.10;50.10;;;;;;5040151;28;20087;-75
2021/09/08 02:19:01;;;;;;;7.97;4.78;;;22.10;49.90;;;;;;5035392;28;20026;-75
2021/09/08 02:21:27;;;;;;;7.07;4.78;;;22.10;50.20;;;;;;5040180;28;20025;-75
2021/09/08 02:23:52;;;;;;;8.10;5.50;;;22.10;50.30;;;;;;5040278;28;20035;-75
2021/09/08 02:26:18;;;;;;;8.48;4.72;;;22.10;50.50;;;;;;5039974;28;20476;-76
2021/09/08 02:28:44;;;;;;;8.23;5.53;;;22.00;50.40;;;;;;5040269;28;20034;-76
2021/09/08 02:31:11;;;;;;;7.03;4.65;;;22.00;50.50;;;;;;5039967;28;20032;-76
2021/09/08 02:33:37;;;;;;;8.48;4.97;;;22.00;50.70;;;;;;5039550;28;20133;-76
2021/09/08 02:36:04;;;;;;;7.10;5.20;;;21.90;50.30;;;;;;5038770;28;20029;-76
2021/09/08 02:38:31;;;;;;;7.70;4.97;;;21.90;50.50;;;;;;5039976;28;20032;-76
2021/09/08 02:41:05;;;;;;;6.70;4.60;;;21.90;50.30;;;;;;5039968;28;20113;-76
2021/09/08 02:43:32;;;;;;;8.07;4.70;;;21.90;50.30;;;;;;5040139;28;20032;-76
2021/09/08 02:46:01;;;;;;;7.18;4.70;;;21.80;50.20;;;;;;5039688;28;20025;-76
2021/09/08 02:48:27;;;;;;;8.95;5.15;;;21.80;50.20;;;;;;5039719;28;20113;-75
2021/09/08 02:50:53;;;;;;;8.27;5.30;;;21.80;50.50;;;;;;5039540;28;20040;-76
2021/09/08 02:53:19;;;;;;;8.20;5.18;;;21.80;50.60;;;;;;5039885;28;20025;-75
2021/09/08 02:55:45;;;;;;;6.43;4.85;;;21.70;50.80;;;;;;5039318;28;20032;-76
2021/09/08 02:58:11;;;;;;;8.77;5.50;;;21.70;51.10;;;;;;5039633;28;20053;-76
2021/09/08 03:00:37;;;;;;;9.90;5.90;;;21.70;51.00;;;;;;5039403;28;20383;-76
2021/09/08 03:03:03;;;;;;;10.20;5.78;;;21.60;50.70;;;;;;5039520;28;20481;-75
2021/09/08 03:05:28;;;;;;;7.65;5.45;;;21.60;51.10;;;;;;5039293;28;20392;-76
2021/09/08 03:07:54;;;;;;;9.18;5.25;;;21.60;51.30;;;;;;5039604;28;20036;-76
2021/09/08 03:10:20;;;;;;;8.88;5.30;;;21.50;51.40;;;;;;5036446;28;20052;-76
2021/09/08 03:12:46;;;;;;;9.60;6.15;;;21.50;51.60;;;;;;5027689;28;20045;-76
2021/09/08 03:15:12;;;;;;;7.35;5.63;;;21.50;51.90;;;;;;5039144;28;21529;-76
2021/09/08 03:17:39;;;;;;;8.63;5.55;;;21.40;52.00;;;;;;5038101;28;20026;-75
2021/09/08 03:20:05;;;;;;;8.18;5.68;;;21.40;51.60;;;;;;5034476;28;20025;-76
2021/09/08 03:22:31;;;;;;;9.20;5.45;;;21.40;51.70;;;;;;5039270;28;20032;-75
2021/09/08 03:24:57;;;;;;;9.68;5.90;;;21.30;51.60;;;;;;5038837;28;20100;-76
2021/09/08 03:27:23;;;;;;;8.50;5.53;;;21.30;51.60;;;;;;5039113;28;20017;-76
2021/09/08 03:29:49;;;;;;;9.48;5.63;;;21.30;51.60;;;;;;5038945;28;20076;-76
2021/09/08 03:32:14;;;;;;;7.95;5.20;;;21.30;51.60;;;;;;5038923;28;20053;-75
2021/09/08 03:34:40;;;;;;;10.20;5.65;;;21.30;52.00;;;;;;5038615;28;20022;-76
2021/09/08 03:37:06;;;;;;;10.00;6.18;;;21.20;52.00;;;;;;5038994;28;20056;-75
2021/09/08 03:39:32;;;;;;;8.73;5.55;;;21.20;52.30;;;;;;5038643;28;20021;-76
2021/09/08 03:41:58;;;;;;;10.40;5.60;;;21.20;54.10;;;;;;5038711;28;20413;-76
2021/09/08 03:44:23;;;;;;;8.50;5.15;;;21.10;53.90;;;;;;5038654;28;20072;-76
2021/09/08 03:46:49;;;;;;;8.80;5.53;;;21.10;52.90;;;;;;5038705;28;20025;-76
2021/09/08 03:49:15;;;;;;;9.85;5.40;;;21.10;52.60;;;;;;5038337;28;20041;-75
2021/09/08 03:51:41;;;;;;;9.10;5.75;;;21.00;52.40;;;;;;5038774;28;20037;-75
2021/09/08 03:54:06;;;;;;;9.25;5.38;;;21.00;55.10;;;;;;5038178;28;20017;-75
2021/09/08 03:56:32;;;;;;;8.95;5.65;;;21.00;54.80;;;;;;5038474;28;20061;-76
2021/09/08 03:58:58;;;;;;;7.47;5.32;;;21.00;53.60;;;;;;5038224;28;20073;-76
2021/09/08 04:01:24;;;;;;;8.50;5.30;;;20.90;53.10;;;;;;5038505;28;20029;-76
2021/09/08 04:03:50;;;;;;;8.90;5.30;;;20.90;52.90;;;;;;5038060;28;20018;-75
2021/09/08 04:06:17;;;;;;;10.90;5.72;;;20.90;52.80;;;;;;5038400;28;20018;-75
2021/09/08 04:08:43;;;;;;;8.38;5.85;;;20.90;55.10;;;;;;5038039;28;20361;-75
2021/09/08 04:11:09;;;;;;;7.82;5.68;;;20.90;54.00;;;;;;5033558;28;20030;-75
2021/09/08 04:13:36;;;;;;;7.68;4.95;;;20.90;53.10;;;;;;5032923;28;20083;-75
2021/09/08 04:16:02;;;;;;;8.43;5.38;;;20.90;52.80;;;;;;5038280;28;20032;-75
2021/09/08 04:18:28;;;;;;;8.10;5.60;;;20.90;53.20;;;;;;5032815;28;20021;-75
2021/09/08 04:20:53;;;;;;;9.18;5.95;;;20.90;53.30;;;;;;5038394;28;20025;-75
2021/09/08 04:23:19;;;;;;;10.23;5.63;;;20.90;53.70;;;;;;5037928;28;20026;-75
2021/09/08 04:25:45;;;;;;;8.90;5.53;;;20.80;54.00;;;;;;5036553;28;20032;-75
2021/09/08 04:28:11;;;;;;;7.00;4.97;;;20.80;54.20;;;;;;5037825;28;20032;-75
2021/09/08 04:30:37;;;;;;;9.02;6.15;;;20.80;54.50;;;;;;5037773;28;20028;-76
2021/09/08 04:33:03;;;;;;;8.95;6.20;;;20.90;57.20;;;;;;5037377;28;20053;-76
2021/09/08 04:35:29;;;;;;;10.07;6.50;;;20.90;59.20;;;;;;5037974;28;20026;-75
2021/09/08 04:37:55;;;;;;;13.55;8.80;;;20.90;59.50;;;;;;5037648;28;20032;-75
2021/09/08 04:40:20;;;;;;;15.02;9.18;;;20.90;63.10;;;;;;5037724;28;20376;-75
2021/09/08 04:42:46;;;;;;;15.57;10.52;;;20.90;64.30;;;;;;5037510;28;20026;-75
2021/09/08 04:45:12;;;;;;;18.67;10.68;;;20.90;64.30;;;;;;5037871;28;20026;-76
2021/09/08 04:47:39;;;;;;;19.67;11.25;;;21.00;67.50;;;;;;5037265;28;20053;-74
2021/09/08 04:50:06;;;;;;;16.65;11.48;;;21.00;66.30;;;;;;5037620;28;20021;-73
2021/09/08 04:52:34;;;;;;;16.80;11.57;;;21.10;66.60;;;;;;5035378;28;20021;-75
2021/09/08 04:55:06;;;;;;;19.60;12.07;;;21.10;66.90;;;;;;5036275;28;20384;-73
2021/09/08 04:57:32;;;;;;;18.60;12.55;;;21.10;65.60;;;;;;5037489;28;20025;-72
2021/09/08 04:59:57;;;;;;;19.85;12.70;;;21.20;67.60;;;;;;5036069;28;20027;-74
2021/09/08 05:02:23;;;;;;;20.92;13.10;;;21.20;70.60;;;;;;5035801;28;20037;-74
2021/09/08 05:04:49;;;;;;;15.23;9.57;;;21.20;71.60;;;;;;5037420;28;20025;-74
2021/09/08 05:07:15;;;;;;;12.48;6.70;;;21.20;70.30;;;;;;5037255;28;20029;-74
2021/09/08 05:09:40;;;;;;;13.35;6.32;;;21.30;68.90;;;;;;5037319;28;20105;-75
2021/09/08 05:12:06;;;;;;;9.82;4.70;;;21.30;67.20;;;;;;5023994;28;20026;-73
2021/09/08 05:14:32;;;;;;;7.55;4.47;;;21.30;68.10;;;;;;5037482;28;20100;-73
2021/09/08 05:16:58;;;;;;;7.78;3.90;;;21.30;66.90;;;;;;5037151;28;20104;-75
2021/09/08 05:19:24;;;;;;;7.47;4.55;;;21.30;66.20;;;;;;5032191;28;20040;-73
2021/09/08 05:21:49;;;;;;;5.22;2.47;;;21.20;68.60;;;;;;5037167;28;20484;-71
2021/09/08 05:24:15;;;;;;;9.13;2.70;;;21.20;68.70;;;;;;5037154;28;20491;-70
2021/09/08 05:26:41;;;;;;;10.73;3.13;;;21.10;70.90;;;;;;5037116;28;20498;-72
2021/09/08 05:29:07;;;;;;;8.30;2.85;;;21.10;69.00;;;;;;5037606;28;20053;-74
2021/09/08 05:31:33;;;;;;;14.95;2.92;;;20.90;66.50;;;;;;5037065;28;20484;-71
2021/09/08 05:33:59;;;;;;;11.65;3.08;;;20.90;67.80;;;;;;5036709;28;20069;-71
2021/09/08 05:36:24;;;;;;;8.52;2.53;;;20.90;67.20;;;;;;5037012;28;20021;-71
2021/09/08 05:38:50;;;;;;;7.38;2.35;;;20.80;66.00;;;;;;5037030;28;20468;-71
2021/09/08 05:41:16;;;;;;;9.75;2.75;;;20.80;65.20;;;;;;5037033;28;20029;-71
2021/09/08 05:43:42;;;;;;;10.50;2.50;;;20.70;66.20;;;;;;5040037;28;20033;-72
2021/09/08 05:46:08;;;;;;;9.00;2.28;;;20.70;69.60;;;;;;5040873;28;20022;-71
2021/09/08 05:48:34;;;;;;;4.47;2.08;;;20.60;70.70;;;;;;5040756;28;20480;-73
2021/09/08 05:51:00;;;;;;;9.48;2.25;;;20.50;70.70;;;;;;5040814;28;20104;-72
2021/09/08 05:53:27;;;;;;;4.45;1.95;;;20.40;68.80;;;;;;5040863;28;20030;-72
2021/09/08 05:55:55;;;;;;;6.40;1.83;;;20.30;67.40;;;;;;5040486;28;20026;-72
2021/09/08 05:58:20;;;;;;;7.90;2.63;;;20.20;66.30;;;;;;5040386;28;20108;-72
2021/09/08 06:00:46;;;;;;;6.53;2.50;;;20.20;68.00;;;;;;5039417;28;20053;-72
2021/09/08 06:03:12;;;;;;;6.13;2.47;;;20.20;74.00;;;;;;5040376;28;20021;-72
2021/09/08 06:05:38;;;;;;;5.07;2.00;;;20.10;72.10;;;;;;5038024;28;20500;-72
2021/09/08 06:08:04;;;;;;;4.75;2.00;;;20.10;68.40;;;;;;5040886;28;20395;-72
2021/09/08 06:10:30;;;;;;;3.78;1.65;;;20.00;66.10;;;;;;5036302;28;20030;-72
2021/09/08 06:12:55;;;;;;;6.57;1.83;;;20.00;65.70;;;;;;5031334;28;20036;-72
2021/09/08 06:15:21;;;;;;;5.45;1.95;;;20.10;65.70;;;;;;5040253;28;20021;-72
2021/09/08 06:17:48;;;;;;;6.22;2.20;;;20.10;65.20;;;;;;5037822;28;20021;-72
2021/09/08 06:20:14;;;;;;;4.60;2.35;;;20.10;64.50;;;;;;5038010;28;20087;-72
2021/09/08 06:22:40;;;;;;;6.40;1.92;;;20.10;65.00;;;;;;5039235;28;20017;-72
2021/09/08 06:25:07;;;;;;;4.65;2.35;;;20.10;65.90;;;;;;5040039;28;20052;-72
2021/09/08 06:27:33;;;;;;;5.32;1.92;;;20.10;65.20;;;;;;5040177;28;20491;-72
2021/09/08 06:29:59;;;;;;;7.03;2.40;;;20.10;64.90;;;;;;5040148;28;20101;-72
2021/09/08 06:32:25;;;;;;;7.40;2.65;;;20.10;64.90;;;;;;5039808;28;20511;-72
2021/09/08 06:34:51;;;;;;;7.00;2.40;;;20.10;64.50;;;;;;5039907;28;20034;-72
2021/09/08 06:37:17;;;;;;;5.65;2.20;;;20.10;64.00;;;;;;5040020;28;20037;-72
2021/09/08 06:39:43;;;;;;;6.13;2.40;;;20.10;64.50;;;;;;5039777;28;20021;-72
2021/09/08 06:42:09;;;;;;;4.05;1.95;;;20.10;63.70;;;;;;5039870;28;20026;-72
2021/09/08 06:44:35;;;;;;;5.65;2.30;;;20.10;63.40;;;;;;5038471;28;20075;-72
2021/09/08 06:47:01;;;;;;;5.20;2.10;;;20.10;63.10;;;;;;5040015;28;20026;-73
2021/09/08 06:49:26;;;;;;;6.78;2.10;;;20.10;62.90;;;;;;5039468;28;20033;-72
2021/09/08 06:51:52;;;;;;;5.68;2.30;;;20.10;64.80;;;;;;5039924;28;20551;-72
2021/09/08 06:54:18;;;;;;;6.07;2.30;;;20.10;67.50;;;;;;5039430;28;20026;-72
2021/09/08 06:56:44;;;;;;;6.22;2.30;;;20.10;68.70;;;;;;5039658;28;20037;-72
2021/09/08 06:59:10;;;;;;;6.00;2.20;;;20.10;66.20;;;;;;5039473;28;20025;-73
2021/09/08 07:01:36;;;;;;;6.72;2.38;;;20.00;64.90;;;;;;5039666;28;20071;-72
2021/09/08 07:04:02;;;;;;;6.63;2.10;;;20.00;64.20;;;;;;5037931;28;20100;-73
2021/09/08 07:06:28;;;;;;;4.90;2.15;;;20.00;64.70;;;;;;5039114;28;20065;-72
2021/09/08 07:08:54;;;;;;;5.22;2.55;;;20.00;65.70;;;;;;5037819;28;20430;-72
2021/09/08 07:11:21;;;;;;;6.25;2.22;;;20.00;65.20;;;;;;5028727;28;20022;-72
2021/09/08 07:13:47;;;;;;;4.78;1.92;;;20.00;64.80;;;;;;5036918;28;20022;-72
2021/09/08 07:16:13;;;;;;;7.45;2.53;;;20.10;64.00;;;;;;5039406;28;20029;-72
2021/09/08 07:18:39;;;;;;;8.07;3.58;;;20.10;65.00;;;;;;5033767;28;20140;-72
2021/09/08 07:21:06;;;;;;;6.63;2.80;;;20.10;65.30;;;;;;5039201;28;20152;-72
2021/09/08 07:23:32;;;;;;;8.82;2.92;;;20.10;65.50;;;;;;5038963;28;20097;-72
2021/09/08 07:25:58;;;;;;;8.45;3.15;;;20.20;66.40;;;;;;5039152;28;20053;-72
2021/09/08 07:28:24;;;;;;;9.52;3.00;;;20.20;67.30;;;;;;5038923;28;20067;-72
2021/09/08 07:30:53;;;;;;;8.35;3.47;;;20.10;66.30;;;;;;5039056;28;20026;-72
2021/09/08 07:33:22;;;;;;;9.88;2.80;;;20.10;66.80;;;;;;5038268;28;20128;-72
2021/09/08 07:35:49;;;;;;;5.82;2.90;;;20.10;65.90;;;;;;5039073;28;20152;-72
2021/09/08 07:38:17;;;;;;;6.53;2.80;;;20.10;65.30;;;;;;5038905;28;20025;-72
2021/09/08 07:40:43;;;;;;;7.25;2.50;;;20.10;65.00;;;;;;5038602;28;20021;-72
2021/09/08 07:43:09;;;;;;;7.40;2.80;;;20.10;64.50;;;;;;5038881;28;20032;-72
2021/09/08 07:45:35;;;;;;;7.60;3.25;;;20.10;64.10;;;;;;5038598;28;20037;-72
2021/09/08 07:48:01;;;;;;;8.48;3.30;;;20.10;64.90;;;;;;5038709;28;20025;-72
2021/09/08 07:50:27;;;;;;;7.80;2.90;;;20.10;66.30;;;;;;5038477;28;20400;-72
2021/09/08 07:52:53;;;;;;;8.15;3.58;;;20.10;65.40;;;;;;5038790;28;20100;-72
2021/09/08 07:55:19;;;;;;;6.60;3.15;;;20.10;72.10;;;;;;5038250;28;20029;-72
2021/09/08 07:57:44;;;;;;;7.18;3.10;;;20.10;70.10;;;;;;5038687;28;20028;-72
2021/09/08 08:00:11;;;;;;;7.18;3.20;;;20.10;68.10;;;;;;5038247;28;20100;-73
2021/09/08 08:02:48;;;;;;;7.35;3.40;;;20.10;66.70;;;;;;5038183;28;20014;-72
2021/09/08 08:05:15;;;;;;;6.05;2.90;;;20.10;72.00;;;;;;5037727;28;20083;-72
2021/09/08 08:07:42;;;;;;;7.25;3.22;;;20.00;69.40;;;;;;5038397;28;20409;-73
2021/09/08 08:10:08;;;;;;;6.78;3.25;;;20.10;68.40;;;;;;5037056;28;20036;-72
2021/09/08 08:12:34;;;;;;;6.90;3.08;;;20.10;66.70;;;;;;5026257;28;20053;-72
2021/09/08 08:15:00;;;;;;;7.57;3.22;;;20.10;66.50;;;;;;5038056;28;20018;-72
2021/09/08 08:17:26;;;;;;;10.70;4.00;;;20.20;71.00;;;;;;5038044;28;20112;-72
2021/09/08 08:19:52;;;;;;;8.45;4.03;;;20.30;69.90;;;;;;5032828;28;20064;-72
2021/09/08 08:22:18;;;;;;;7.88;3.95;;;20.60;70.70;;;;;;5038218;28;20018;-72
2021/09/08 08:24:44;;;;;;;9.70;3.90;;;20.90;72.20;;;;;;5037756;28;20025;-72
2021/09/08 08:27:10;;;;;;;7.43;3.50;;;21.40;73.50;;;;;;5038149;28;20128;-72
2021/09/08 08:29:36;;;;;;;7.45;4.03;;;22.00;74.10;;;;;;5038009;28;20061;-72
2021/09/08 08:32:02;;;;;;;8.13;3.60;;;22.60;74.30;;;;;;5036385;28;20025;-74
2021/09/08 08:34:28;;;;;;;9.98;4.40;;;23.20;73.70;;;;;;5037563;28;20036;-73
2021/09/08 08:36:54;;;;;;;10.48;5.35;;;23.80;73.10;;;;;;5037819;28;20022;-73
2021/09/08 08:39:20;;;;;;;11.55;6.97;;;24.40;72.20;;;;;;5037614;28;20026;-73
2021/09/08 08:41:46;;;;;;;10.93;8.35;;;24.90;70.60;;;;;;5037852;28;20096;-73
2021/09/08 08:44:13;;;;;;;13.43;8.40;;;25.20;67.70;;;;;;5037610;28;20052;-73
2021/09/08 08:46:38;;;;;;;11.43;7.30;;;25.50;67.60;;;;;;5037765;28;20029;-73
2021/09/08 08:49:05;;;;;;;10.60;6.22;;;25.70;67.70;;;;;;5037372;28;20569;-73
2021/09/08 08:51:31;;;;;;;10.60;7.00;;;26.00;67.30;;;;;;5036365;28;20061;-73
2021/09/08 08:53:57;;;;;;;9.18;5.25;;;26.30;67.00;;;;;;5037220;28;20509;-73
2021/09/08 08:56:24;;;;;;;8.48;5.55;;;26.70;66.10;;;;;;5037562;28;20036;-73
2021/09/08 08:58:51;;;;;;;7.85;4.90;;;27.00;66.10;;;;;;5037385;28;20021;-73
2021/09/08 09:01:22;;;;;;;7.80;4.50;;;27.50;65.90;;;;;;5037574;28;20025;-73
2021/09/08 09:03:58;;;;;;;8.40;5.30;;;27.80;64.90;;;;;;5037166;28;20018;-72
2021/09/08 09:06:24;;;;;;;7.03;4.57;;;28.00;60.00;;;;;;5037514;28;20029;-73
2021/09/08 09:09:04;;;;;;;9.25;4.68;;;28.10;61.60;;;;;;5037237;28;20053;-73
2021/09/08 09:11:31;;;;;;;8.40;3.50;;;28.40;61.80;;;;;;5023874;28;20506;-73
2021/09/08 09:13:57;;;;;;;9.43;3.33;;;28.80;60.60;;;;;;5036558;28;20029;-73
2021/09/08 09:16:26;;;;;;;9.23;3.97;;;29.00;59.20;;;;;;5037211;28;20029;-73
2021/09/08 09:18:52;;;;;;;8.48;3.22;;;28.90;59.50;;;;;;5035586;28;20041;-73
2021/09/08 09:21:18;;;;;;;7.07;3.60;;;29.00;59.50;;;;;;5041599;28;20379;-73
2021/09/08 09:23:50;;;;;;;8.25;3.25;;;29.20;60.90;;;;;;5041237;28;20096;-73
2021/09/08 09:26:31;;;;;;;9.02;4.00;;;29.60;58.00;;;;;;5041309;28;20025;-73
2021/09/08 09:29:11;;;;;;;6.95;3.30;;;29.50;57.40;;;;;;5041391;28;20476;-73
2021/09/08 09:31:56;;;;;;;10.18;3.42;;;29.50;57.10;;;;;;5041429;28;20064;-73
2021/09/08 09:34:22;;;;;;;7.03;3.30;;;29.20;57.10;;;;;;5035344;28;20041;-73
2021/09/08 09:36:56;;;;;;;7.60;3.15;;;29.10;56.90;;;;;;5041220;28;20029;-72
2021/09/08 09:39:22;;;;;;;9.38;3.42;;;29.00;56.70;;;;;;5041055;28;20025;-72
2021/09/08 09:41:48;;;;;;;8.35;3.38;;;28.80;57.30;;;;;;5041392;28;20029;-72
2021/09/08 09:44:15;;;;;;;7.63;3.40;;;28.60;57.00;;;;;;5040876;28;20079;-72
2021/09/08 09:46:45;;;;;;;8.45;3.30;;;28.40;56.80;;;;;;5041034;28;20037;-73
2021/09/08 09:49:12;;;;;;;6.75;3.70;;;28.20;56.30;;;;;;5040653;28;20029;-72
2021/09/08 09:51:39;;;;;;;8.32;3.42;;;27.90;56.30;;;;;;5040956;28;20112;-72
2021/09/08 09:54:05;;;;;;;7.50;3.40;;;27.70;57.40;;;;;;5040605;28;20029;-72
2021/09/08 09:56:30;;;;;;;7.30;3.20;;;27.60;57.80;;;;;;5040765;28;20026;-72
2021/09/08 09:58:57;;;;;;;6.97;3.45;;;27.50;57.80;;;;;;5040610;28;20092;-72
2021/09/08 10:01:22;;;;;;;8.57;3.70;;;27.40;58.30;;;;;;5040769;28;20025;-72
2021/09/08 10:03:48;;;;;;;7.68;3.42;;;27.30;58.00;;;;;;5040368;28;20024;-72
2021/09/08 10:06:15;;;;;;;5.85;2.95;;;27.20;57.80;;;;;;5040641;28;20022;-72
2021/09/08 10:08:48;;;;;;;7.13;3.50;;;27.10;57.90;;;;;;5040350;28;20026;-72
2021/09/08 10:11:24;;;;;;;9.23;3.70;;;27.10;58.30;;;;;;5030349;28;20484;-72
2021/09/08 10:13:57;;;;;;;6.45;2.95;;;27.20;58.90;;;;;;5038779;28;20538;-72
2021/09/08 10:16:23;;;;;;;6.15;2.95;;;27.10;59.00;;;;;;5040527;28;20029;-72
2021/09/08 10:18:50;;;;;;;6.90;2.88;;;27.10;58.30;;;;;;5035113;28;20028;-72
2021/09/08 10:21:21;;;;;;;6.57;3.45;;;27.10;58.70;;;;;;5040366;28;20121;-72
2021/09/08 10:23:59;;;;;;;7.35;3.53;;;27.10;58.80;;;;;;5027501;28;20079;-72
2021/09/08 10:26:30;;;;;;;8.95;3.33;;;27.30;59.20;;;;;;5040024;28;20029;-72
2021/09/08 10:29:07;;;;;;;5.45;3.03;;;27.40;59.30;;;;;;5039978;28;20018;-72
2021/09/08 10:31:41;;;;;;;9.27;3.97;;;27.70;58.50;;;;;;5040097;28;20036;-72
2021/09/08 10:34:08;;;;;;;6.90;3.08;;;28.10;59.30;;;;;;5032069;28;20049;-72
2021/09/08 10:36:36;;;;;;;10.93;3.38;;;28.60;57.80;;;;;;5039835;28;20393;-72
2021/09/08 10:39:18;;;;;;;7.85;3.55;;;28.90;56.50;;;;;;5039891;28;20057;-72
2021/09/08 10:41:52;;;;;;;6.50;3.00;;;29.20;56.70;;;;;;5028959;28;20053;-72
2021/09/08 10:44:38;;;;;;;7.70;3.00;;;29.60;57.50;;;;;;5039898;28;20022;-73
2021/09/08 10:47:04;;;;;;;4.93;3.00;;;30.00;57.30;;;;;;5039723;28;20125;-72
2021/09/08 10:49:36;;;;;;;7.47;2.92;;;30.30;57.20;;;;;;5039912;28;20028;-72
2021/09/08 10:52:04;;;;;;;;;;;30.40;54.30;;;;;;5040003;28;20029;-72
2021/09/08 10:54:31;;;;;;;8.13;3.08;;;30.30;54.00;;;;;;5039843;28;19984;-72
2021/09/08 10:56:58;;;;;;;5.63;2.63;;;30.20;54.80;;;;;;5039599;28;20387;-72
2021/09/08 10:59:24;;;;;;;5.55;3.20;;;30.20;54.90;;;;;;5039845;28;20101;-72
2021/09/08 11:01:53;;;;;;;5.95;2.67;;;30.30;55.20;;;;;;5039562;28;20067;-73
2021/09/08 11:04:19;;;;;;;4.85;2.88;;;30.40;56.30;;;;;;5039591;28;20030;-73
2021/09/08 11:06:49;;;;;;;6.57;2.72;;;30.80;56.00;;;;;;5039394;28;20068;-73
2021/09/08 11:09:17;;;;;;;6.90;2.90;;;31.20;56.40;;;;;;5039646;28;20099;-72
2021/09/08 11:11:56;;;;;;;7.70;3.25;;;31.40;54.30;;;;;;5026062;28;20076;-73
2021/09/08 11:14:49;;;;;;;6.28;2.85;;;31.50;53.70;;;;;;5039752;28;20034;-73
2021/09/08 11:17:23;;;;;;;5.82;2.90;;;31.30;52.40;;;;;;5039102;28;20021;-72
2021/09/08 11:19:56;;;;;;;4.85;2.97;;;31.00;52.60;;;;;;5034725;28;20041;-72
2021/09/08 11:22:23;;;;;;;6.25;2.83;;;30.70;53.10;;;;;;5039545;28;20049;-72
2021/09/08 11:25:07;;;;;;;7.07;3.10;;;30.50;52.80;;;;;;5038931;28;20053;-71
2021/09/08 11:27:34;;;;;;;6.13;2.80;;;30.60;53.90;;;;;;5039259;28;20025;-71
2021/09/08 11:30:11;;;;;;;6.30;3.08;;;30.90;54.80;;;;;;5038976;28;20030;-71
2021/09/08 11:32:58;;;;;;;5.97;3.38;;;31.40;55.60;;;;;;5038548;28;20049;-70
2021/09/08 11:35:42;;;;;;;6.95;2.80;;;32.00;55.50;;;;;;5028349;28;20432;-71
2021/09/08 11:38:21;;;;;;;4.40;2.55;;;32.40;55.10;;;;;;5038824;28;20014;-70
2021/09/08 11:40:50;;;;;;;5.65;3.17;;;32.60;52.20;;;;;;5037871;28;20022;-73
2021/09/08 11:43:37;;;;;;;5.40;2.83;;;32.40;51.60;;;;;;5037570;28;20077;-72
2021/09/08 11:46:12;;;;;;;6.10;2.90;;;32.20;52.00;;;;;;5038673;28;20462;-72
2021/09/08 11:48:38;;;;;;;5.82;3.20;;;32.00;52.20;;;;;;5038613;28;20017;-72
2021/09/08 11:51:05;;;;;;;4.93;3.13;;;31.80;52.10;;;;;;5038544;28;20029;-73
2021/09/08 11:53:32;;;;;;;5.30;2.92;;;31.70;51.60;;;;;;5038641;28;20036;-72
2021/09/08 11:56:08;;;;;;;6.47;2.65;;;31.90;51.60;;;;;;5038386;28;20106;-73
2021/09/08 11:58:34;;;;;;;4.78;2.38;;;32.00;52.50;;;;;;5038413;28;20025;-72
2021/09/08 12:01:08;;;;;;;4.68;2.70;;;32.30;51.10;;;;;;5038585;28;20021;-73
2021/09/08 12:03:41;;;;;;;4.60;2.40;;;32.50;52.00;;;;;;5038202;28;20120;-73
2021/09/08 12:06:08;;;;;;;4.95;2.30;;;32.70;52.80;;;;;;5038520;28;20027;-73
2021/09/08 12:08:36;;;;;;;6.88;2.45;;;33.00;51.90;;;;;;5038420;28;20022;-73
2021/09/08 12:11:02;;;;;;;5.35;2.28;;;33.10;50.40;;;;;;5030030;28;20014;-73
2021/09/08 12:13:33;;;;;;;5.25;2.45;;;33.00;51.20;;;;;;5033362;28;20066;-73
2021/09/08 12:16:01;;;;;;;6.50;2.22;;;32.70;50.70;;;;;;5038407;28;20086;-72
2021/09/08 12:18:27;;;;;;;4.97;2.63;;;32.50;51.20;;;;;;5032799;28;20061;-73
2021/09/08 12:20:53;;;;;;;5.40;2.47;;;32.40;50.60;;;;;;5038303;28;20026;-72
2021/09/08 12:23:27;;;;;;;4.82;2.63;;;32.20;51.00;;;;;;5037931;28;20045;-73
2021/09/08 12:26:09;;;;;;;7.55;2.63;;;32.10;50.80;;;;;;5037921;28;20033;-72
2021/09/08 12:28:37;;;;;;;4.38;2.33;;;32.00;51.50;;;;;;5025140;28;20033;-72
2021/09/08 12:31:17;;;;;;;3.78;2.33;;;32.00;51.30;;;;;;5037871;28;20106;-73
2021/09/08 12:33:58;;;;;;;5.53;2.60;;;32.10;50.80;;;;;;5037393;28;20053;-72
2021/09/08 12:36:24;;;;;;;5.00;2.30;;;32.00;50.40;;;;;;5037753;28;20025;-73
2021/09/08 12:38:51;;;;;;;5.18;2.78;;;31.90;51.10;;;;;;5037857;28;20022;-73
2021/09/08 12:41:28;;;;;;;4.70;2.55;;;31.70;51.80;;;;;;5037801;28;20045;-73
2021/09/08 12:43:54;;;;;;;6.22;2.85;;;31.50;52.20;;;;;;5037651;28;20022;-72
2021/09/08 12:46:38;;;;;;;4.57;3.05;;;31.30;50.90;;;;;;5037688;28;20052;-70